Time;durP1;ratioP1;P1;durP2;ratioP2;P2;SDS_P1;SDS_P2;PMS_P1;PMS_P2;Temp;Humidity;BMP_temperature;BMP_pressure;BME280_temperature;BME280_humidity;BME280_pressure;Samples;Min_cycle;Max_cycle;Signal;HPM_P1;HPM_P2
2022/12/29 00:02:21;;;;;;;14.10;10.43;;;3.80;99.90;;;4.41;100.00;97562.00;5197764;28;20648;-90
2022/12/29 00:04:55;;;;;;;12.80;9.90;;;3.80;99.90;;;4.38;100.00;97556.69;5196308;28;20211;-90
2022/12/29 00:07:28;;;;;;;11.03;8.97;;;3.80;99.90;;;4.42;100.00;97554.50;5203156;28;20276;-91
2022/12/29 00:10:07;;;;;;;10.43;9.00;;;3.80;99.90;;;4.52;100.00;97545.94;5201192;28;20289;-91
2022/12/29 00:15:38;;;;;;;11.63;9.23;;;3.90;99.90;;;4.59;100.00;97547.31;5199011;28;20221;-90
2022/12/29 00:18:12;;;;;;;11.83;8.97;;;3.90;99.90;;;4.58;100.00;97541.38;5192409;28;20202;-89
2022/12/29 00:35:11;;;;;;;5.53;4.90;;;4.30;99.90;;;4.88;100.00;97536.81;5203700;28;20214;-90
2022/12/29 00:46:22;;;;;;;6.50;5.77;;;4.40;99.90;;;4.97;100.00;97522.28;5201349;28;20577;-90
2022/12/29 00:51:46;;;;;;;6.47;5.87;;;4.30;99.90;;;5.00;100.00;97521.63;5196992;28;20225;-90
2022/12/29 00:54:21;;;;;;;6.17;5.67;;;4.30;99.90;;;4.96;100.00;97512.94;5198264;28;20676;-90
2022/12/29 00:56:54;;;;;;;6.00;5.40;;;4.30;99.90;;;4.93;100.00;97512.72;5203016;28;20206;-90
2022/12/29 00:59:30;;;;;;;6.20;5.70;;;4.30;99.90;;;4.95;100.00;97516.22;5198752;28;20583;-90
2022/12/29 01:02:05;;;;;;;7.00;6.00;;;4.40;99.90;;;4.96;100.00;97516.34;5202474;28;20225;-90
2022/12/29 01:04:39;;;;;;;6.10;5.60;;;4.40;99.90;;;5.01;100.00;97514.16;5196184;28;20234;-90
2022/12/29 01:07:12;;;;;;;6.03;5.40;;;4.40;99.90;;;5.08;100.00;97502.81;5197503;28;20569;-89
2022/12/29 01:12:51;;;;;;;6.40;5.80;;;4.50;99.90;;;5.10;100.00;97497.09;5179206;28;20785;-90
2022/12/29 01:15:24;;;;;;;6.20;5.70;;;4.50;99.90;;;5.16;100.00;97499.19;5176519;28;20211;-90
2022/12/29 01:18:04;;;;;;;6.60;6.10;;;4.50;99.90;;;5.06;100.00;97504.34;5191047;28;20260;-90
2022/12/29 01:20:40;;;;;;;6.10;5.60;;;4.50;99.90;;;5.09;100.00;97505.44;5199200;28;20325;-90
2022/12/29 01:23:14;;;;;;;5.47;4.97;;;4.50;99.90;;;5.10;100.00;97503.81;5206887;28;20198;-90
2022/12/29 01:25:48;;;;;;;6.03;5.53;;;4.40;99.90;;;5.03;100.00;97497.41;5203597;28;20202;-90
2022/12/29 01:28:22;;;;;;;7.30;6.70;;;4.40;99.90;;;5.20;100.00;97504.56;5202965;28;20317;-90
2022/12/29 01:31:01;;;;;;;7.37;6.77;;;4.50;99.90;;;5.14;100.00;97496.50;5205779;28;20313;-90
2022/12/29 01:33:36;;;;;;;6.67;6.07;;;4.50;99.90;;;5.14;100.00;97504.13;5206451;28;20210;-89
2022/12/29 01:36:12;;;;;;;6.90;6.37;;;4.50;99.90;;;5.11;100.00;97506.44;5209826;28;20201;-90
2022/12/29 01:38:49;;;;;;;6.60;6.00;;;4.40;99.90;;;5.05;100.00;97515.25;5207711;28;20256;-89
2022/12/29 01:41:23;;;;;;;6.70;6.10;;;4.40;99.90;;;5.04;100.00;97518.56;5215020;28;20237;-89
2022/12/29 01:44:00;;;;;;;6.80;6.10;;;4.40;99.90;;;5.25;100.00;97512.50;5209409;28;20201;-90
2022/12/29 01:46:37;;;;;;;6.10;5.60;;;4.50;99.90;;;5.22;100.00;97521.53;5206221;28;20210;-89
2022/12/29 01:49:20;;;;;;;6.30;5.70;;;4.60;99.90;;;5.21;100.00;97518.13;5199031;28;20233;-89
2022/12/29 01:51:57;;;;;;;6.27;5.77;;;4.60;99.90;;;5.18;100.00;97515.38;5202290;28;20582;-91
2022/12/29 01:54:35;;;;;;;6.50;5.90;;;4.60;99.90;;;5.19;100.00;97524.72;5202427;28;20205;-90
2022/12/29 01:57:13;;;;;;;6.00;5.57;;;4.60;99.90;;;5.22;100.00;97519.88;5201679;28;20252;-90
2022/12/29 01:59:56;;;;;;;6.77;6.20;;;4.60;99.90;;;5.28;100.00;97512.72;5202028;28;20210;-90
2022/12/29 02:02:30;;;;;;;6.20;5.60;;;4.70;99.90;;;5.26;100.00;97506.66;5195893;28;20256;-90
2022/12/29 02:05:15;;;;;;;6.40;5.87;;;4.70;99.90;;;5.30;100.00;97503.56;5206189;28;20206;-90
2022/12/29 02:07:51;;;;;;;6.57;6.00;;;4.70;99.90;;;5.32;100.00;97503.66;5201899;28;20209;-90
2022/12/29 02:10:31;;;;;;;6.97;5.80;;;4.80;99.90;;;5.37;100.00;97503.22;5195063;28;20218;-90
2022/12/29 02:13:06;;;;;;;6.10;5.60;;;4.80;99.90;;;5.38;100.00;97505.00;5191810;28;20210;-90
2022/12/29 02:15:53;;;;;;;6.47;5.87;;;4.80;99.90;;;5.42;100.00;97496.84;5196004;28;20210;-90
2022/12/29 02:18:38;;;;;;;6.13;5.63;;;4.90;99.90;;;5.50;100.00;97504.13;5199383;28;20284;-90
2022/12/29 02:21:46;;;;;;;5.43;5.13;;;4.90;99.90;;;5.53;100.00;97507.75;5200733;28;20257;-90
2022/12/29 02:25:20;;;;;;;4.93;4.63;;;5.00;99.90;;;5.60;100.00;97503.97;5186764;28;20226;-90
2022/12/29 02:28:13;;;;;;;6.03;5.40;;;5.00;99.90;;;5.59;100.00;97505.63;5199254;28;20204;-90
2022/12/29 02:31:02;;;;;;;5.23;4.83;;;4.90;99.90;;;5.60;100.00;97496.38;5199353;28;20661;-90
2022/12/29 02:33:51;;;;;;;5.17;4.77;;;5.00;99.90;;;5.59;100.00;97487.00;5204898;28;20214;-90
2022/12/29 02:36:42;;;;;;;5.07;4.57;;;5.00;99.90;;;5.65;100.00;97497.56;5196015;28;20580;-90
2022/12/29 02:39:25;;;;;;;4.00;3.50;;;5.00;99.90;;;5.61;100.00;97490.53;5202489;28;20625;-90
2022/12/29 02:42:05;;;;;;;3.80;3.60;;;5.00;99.90;;;5.61;100.00;97481.28;5197557;28;20229;-90
2022/12/29 02:44:52;;;;;;;4.10;3.80;;;5.10;99.90;;;5.67;100.00;97485.91;5197393;28;20202;-90
2022/12/29 02:47:37;;;;;;;4.00;3.70;;;5.10;99.90;;;5.73;100.00;97481.25;5198830;28;20679;-90
2022/12/29 02:50:17;;;;;;;4.90;4.13;;;5.10;99.90;;;5.80;100.00;97478.34;5199323;28;20249;-90
2022/12/29 02:52:57;;;;;;;4.77;4.37;;;5.20;99.90;;;5.84;100.00;97485.41;5198869;28;20202;-90
2022/12/29 02:55:30;;;;;;;4.75;4.43;;;5.30;99.90;;;5.97;100.00;97488.81;5203127;28;20209;-91
2022/12/29 02:58:18;;;;;;;4.83;4.37;;;5.30;99.90;;;5.99;100.00;97482.19;5198445;28;20335;-91
2022/12/29 03:01:17;;;;;;;4.70;4.40;;;5.30;99.90;;;5.93;100.00;97484.28;5195787;28;20228;-91
2022/12/29 03:04:19;;;;;;;4.28;3.97;;;5.30;99.90;;;5.95;100.00;97485.28;5191797;28;20206;-90
2022/12/29 03:07:04;;;;;;;4.93;4.47;;;5.30;99.90;;;5.92;100.00;97479.97;5199167;28;20216;-91
2022/12/29 03:09:47;;;;;;;4.82;4.43;;;5.20;99.90;;;5.90;100.00;97471.41;5204968;28;20246;-91
2022/12/29 03:18:23;;;;;;;4.22;3.92;;;5.30;99.90;;;5.87;100.00;97469.53;5194003;28;20276;-90
2022/12/29 03:21:03;;;;;;;4.75;4.45;;;5.30;99.90;;;5.99;100.00;97472.06;5201503;28;20290;-90
2022/12/29 03:23:38;;;;;;;4.85;4.45;;;5.30;99.90;;;5.92;100.00;97472.34;5198092;28;20264;-90
2022/12/29 03:26:15;;;;;;;4.82;4.53;;;5.40;99.90;;;5.95;100.00;97467.53;5199616;28;20208;-91
2022/12/29 03:28:56;;;;;;;4.73;4.33;;;5.40;99.90;;;5.96;100.00;97461.69;5203265;28;20216;-90
2022/12/29 03:31:32;;;;;;;4.33;4.03;;;5.40;99.90;;;5.94;100.00;97460.69;5202112;28;20710;-90
2022/12/29 03:34:08;;;;;;;4.10;3.90;;;5.40;99.90;;;5.99;100.00;97452.63;5189971;28;20683;-90
2022/12/29 03:36:49;;;;;;;4.40;4.10;;;5.50;99.90;;;6.06;100.00;97451.38;5195826;28;20206;-90
2022/12/29 03:39:25;;;;;;;3.73;3.53;;;5.50;99.90;;;6.18;100.00;97457.31;5199230;28;20605;-90
2022/12/29 03:42:04;;;;;;;4.30;3.50;;;5.70;99.90;;;6.39;100.00;97456.97;5193207;28;20272;-89
2022/12/29 03:44:40;;;;;;;3.45;3.15;;;5.90;99.90;;;6.62;100.00;97456.81;5197443;28;20202;-90
2022/12/29 03:47:15;;;;;;;3.50;3.20;;;6.20;99.90;;;6.77;100.00;97462.88;5201070;28;20209;-90
2022/12/29 03:49:50;;;;;;;3.67;3.47;;;6.30;99.90;;;6.89;100.00;97454.31;5198850;28;20279;-90
2022/12/29 03:52:26;;;;;;;4.28;3.92;;;6.40;99.90;;;6.92;100.00;97447.75;5196806;28;20225;-91
2022/12/29 03:55:01;;;;;;;3.60;3.40;;;6.40;99.90;;;6.89;100.00;97452.63;5205052;28;20213;-90
2022/12/29 03:57:35;;;;;;;3.95;3.65;;;6.40;99.90;;;6.97;100.00;97456.56;5190686;28;20733;-90
2022/12/29 04:00:10;;;;;;;3.85;3.55;;;6.50;99.90;;;7.06;100.00;97445.22;5194241;28;20203;-90
2022/12/29 04:02:51;;;;;;;3.83;3.55;;;6.60;99.90;;;7.15;100.00;97445.81;5192324;28;20203;-90
2022/12/29 04:05:24;;;;;;;3.70;3.40;;;6.80;99.90;;;7.30;100.00;97438.28;5196548;28;20285;-90
2022/12/29 04:08:00;;;;;;;3.30;3.10;;;7.00;99.90;;;7.49;100.00;97437.75;5203652;28;20225;-90
2022/12/29 04:10:33;;;;;;;3.85;3.13;;;7.10;99.90;;;7.58;100.00;97434.13;5197781;28;20229;-90
2022/12/29 04:13:07;;;;;;;3.70;3.40;;;7.20;99.90;;;7.66;100.00;97427.81;5201634;28;20232;-91
2022/12/29 04:15:42;;;;;;;2.75;2.45;;;7.20;99.90;;;7.75;99.53;97426.63;5198532;28;20212;-90
2022/12/29 04:18:15;;;;;;;3.17;2.97;;;7.30;99.90;;;7.88;99.07;97431.69;5203794;28;20210;-90
2022/12/29 04:21:02;;;;;;;3.58;3.28;;;7.50;99.90;;;7.91;97.40;97424.22;5195170;28;20234;-90
2022/12/29 04:23:39;;;;;;;3.58;3.20;;;7.60;99.90;;;8.03;96.67;97424.97;5198565;28;20964;-90
2022/12/29 04:26:12;;;;;;;3.30;3.00;;;7.60;99.90;;;8.16;96.09;97431.66;5197412;28;20214;-90
2022/12/29 04:28:46;;;;;;;3.42;2.42;;;7.70;99.90;;;8.23;93.66;97438.88;5200983;28;20205;-89
2022/12/29 04:31:20;;;;;;;4.32;3.10;;;7.90;99.90;;;8.29;93.35;97439.22;5203664;28;20246;-91
2022/12/29 04:33:53;;;;;;;4.43;2.88;;;7.90;99.90;;;8.32;91.68;97438.53;5193519;28;20649;-89
2022/12/29 04:36:29;;;;;;;3.20;3.00;;;8.00;99.90;;;8.41;90.98;97438.22;5202265;28;20241;-91
2022/12/29 04:39:06;;;;;;;3.05;2.85;;;8.00;99.90;;;8.39;92.26;97445.78;5204537;28;20733;-90
2022/12/29 04:41:40;;;;;;;2.90;2.70;;;7.90;99.90;;;8.34;91.79;97449.69;5208881;28;20232;-91
2022/12/29 04:44:14;;;;;;;3.42;3.15;;;7.90;99.90;;;8.34;92.12;97455.66;5195028;28;20257;-91
2022/12/29 04:46:51;;;;;;;3.58;3.28;;;7.90;99.90;;;8.37;90.40;97452.41;5197629;28;20212;-90
2022/12/29 04:49:25;;;;;;;2.97;2.78;;;7.90;99.90;;;8.41;91.45;97451.81;5198758;28;20241;-90
2022/12/29 04:51:58;;;;;;;3.17;2.97;;;7.90;99.90;;;8.53;91.25;97452.56;5198836;28;20229;-91
2022/12/29 04:54:34;;;;;;;2.58;2.30;;;8.00;99.90;;;8.53;90.88;97456.78;5200697;28;20289;-90
2022/12/29 04:57:08;;;;;;;3.00;2.80;;;8.00;99.90;;;8.50;89.43;97449.84;5201185;28;20217;-90
2022/12/29 04:59:41;;;;;;;3.20;3.00;;;8.00;99.90;;;8.54;89.69;97441.56;5207077;28;20214;-91
2022/12/29 05:02:14;;;;;;;3.33;2.63;;;8.10;99.90;;;8.60;90.39;97451.25;5205499;28;20249;-91
2022/12/29 05:04:50;;;;;;;3.33;3.03;;;8.10;99.90;;;8.57;90.84;97446.84;5206596;28;20296;-90
2022/12/29 05:07:24;;;;;;;4.60;2.80;;;8.00;99.90;;;8.55;90.04;97442.44;5198335;28;20226;-91
2022/12/29 05:13:11;;;;;;;3.67;2.78;;;8.10;99.90;;;8.55;88.99;97440.78;5203115;28;20229;-90
2022/12/29 05:15:49;;;;;;;2.90;2.70;;;8.10;99.90;;;8.55;88.01;97453.50;5206615;28;20201;-90
2022/12/29 05:18:22;;;;;;;3.25;2.95;;;8.10;99.90;;;8.59;88.30;97446.94;5198458;28;20205;-90
2022/12/29 05:20:56;;;;;;;2.95;2.70;;;8.20;99.90;;;8.55;88.29;97443.31;5194971;28;20228;-90
2022/12/29 05:23:29;;;;;;;3.35;3.00;;;8.10;99.90;;;8.59;89.01;97453.72;5197417;28;20253;-90
2022/12/29 05:26:10;;;;;;;2.92;2.70;;;8.10;99.90;;;8.57;89.74;97461.25;5201285;28;20275;-91
2022/12/29 05:28:47;;;;;;;3.22;3.00;;;8.00;99.90;;;8.51;90.28;97450.72;5202802;28;20280;-91
2022/12/29 05:31:20;;;;;;;3.42;3.22;;;7.90;99.90;;;8.37;90.92;97456.63;5199729;28;20222;-90
2022/12/29 05:33:54;;;;;;;3.25;3.05;;;7.80;99.90;;;8.29;91.80;97456.16;5196367;28;20234;-90
2022/12/29 05:36:27;;;;;;;4.63;3.40;;;7.80;99.90;;;8.25;91.79;97457.66;5193972;28;20256;-90
2022/12/29 05:39:08;;;;;;;3.25;3.05;;;7.70;99.90;;;8.25;91.75;97460.22;5194713;28;20213;-91
2022/12/29 05:41:42;;;;;;;3.53;3.28;;;7.70;99.90;;;8.33;91.80;97445.41;5198136;28;20222;-92
2022/12/29 05:44:19;;;;;;;3.40;3.10;;;7.80;99.90;;;8.38;91.05;97454.16;5201433;28;20222;-91
2022/12/29 05:46:52;;;;;;;3.50;3.20;;;7.80;99.90;;;8.38;91.13;97443.97;5202516;28;20588;-90
2022/12/29 05:49:26;;;;;;;3.10;2.90;;;7.80;99.90;;;8.32;91.80;97444.50;5204580;28;20213;-91
2022/12/29 05:51:59;;;;;;;3.40;3.10;;;7.70;99.90;;;8.30;92.66;97435.91;5200705;28;20225;-90
2022/12/29 05:54:33;;;;;;;3.92;3.58;;;7.70;99.90;;;8.22;92.43;97433.69;5196170;28;20210;-90
2022/12/29 05:57:07;;;;;;;4.70;3.67;;;7.60;99.90;;;8.10;91.51;97439.81;5197161;28;20241;-90
2022/12/29 05:59:42;;;;;;;3.97;3.58;;;7.50;99.90;;;8.01;91.49;97448.56;5201633;28;20210;-90
2022/12/29 06:02:16;;;;;;;5.28;3.17;;;7.40;99.90;;;7.92;91.02;97453.09;5204742;28;20581;-90
2022/12/29 06:04:54;;;;;;;3.50;3.20;;;7.40;99.90;;;7.93;90.92;97453.19;5189003;28;20221;-90
2022/12/29 06:07:31;;;;;;;3.80;3.50;;;7.40;99.90;;;7.88;90.34;97444.41;5200922;28;20210;-90
2022/12/29 06:10:06;;;;;;;3.47;3.17;;;7.50;99.90;;;7.94;90.14;97442.22;5199171;28;20584;-90
2022/12/29 06:12:41;;;;;;;3.88;3.63;;;7.50;99.90;;;7.98;90.53;97436.53;5199401;28;20224;-89
2022/12/29 06:15:28;;;;;;;3.13;2.90;;;7.50;99.90;;;7.99;90.92;97443.38;5193208;28;20268;-90
2022/12/29 06:18:01;;;;;;;3.88;3.47;;;7.40;99.90;;;7.93;90.07;97445.56;5204696;28;20221;-90
2022/12/29 06:20:38;;;;;;;4.28;3.30;;;7.40;99.90;;;7.91;89.81;97434.41;5201118;28;20217;-90
2022/12/29 06:23:13;;;;;;;3.65;3.35;;;7.40;99.90;;;7.94;90.24;97434.59;5197692;28;20213;-90
2022/12/29 06:25:48;;;;;;;3.90;3.30;;;7.50;99.90;;;7.96;90.17;97427.94;5192877;28;20652;-90
2022/12/29 06:28:23;;;;;;;3.90;3.40;;;7.50;99.90;;;7.96;89.89;97427.06;5200939;28;20229;-90
2022/12/29 06:31:01;;;;;;;3.80;3.25;;;7.50;99.90;;;7.97;90.42;97409.31;5198028;28;20225;-89
2022/12/29 06:33:44;;;;;;;3.70;3.40;;;7.50;99.90;;;7.96;91.12;97392.31;5194444;28;20218;-90
2022/12/29 06:36:22;;;;;;;2.78;2.55;;;7.40;99.90;;;7.95;91.59;97403.25;5198310;28;20210;-90
2022/12/29 06:38:55;;;;;;;4.03;3.55;;;7.30;99.90;;;7.63;94.94;97399.66;5193810;28;20745;-90
2022/12/29 06:41:28;;;;;;;3.40;3.20;;;7.00;99.90;;;7.57;95.66;97416.22;5205973;28;20226;-89
2022/12/29 06:44:06;;;;;;;3.90;3.60;;;6.90;99.90;;;7.56;95.56;97409.38;5199597;28;20217;-89
2022/12/29 06:46:39;;;;;;;3.28;2.97;;;6.90;99.90;;;7.59;95.62;97430.78;5198711;28;20206;-90
2022/12/29 06:49:13;;;;;;;3.30;3.10;;;7.00;99.90;;;7.60;95.28;97447.78;5201005;28;20257;-88
2022/12/29 06:51:46;;;;;;;3.60;3.30;;;7.00;99.90;;;7.83;94.83;97445.78;5204719;28;20274;-87
2022/12/29 06:54:19;;;;;;;3.60;3.35;;;7.10;99.90;;;7.74;93.88;97435.06;5200745;28;20205;-88
2022/12/29 06:56:53;;;;;;;4.22;3.92;;;7.00;99.90;;;7.47;95.20;97445.31;5204582;28;20214;-87
2022/12/29 06:59:43;;;;;;;4.30;3.90;;;6.80;99.90;;;7.37;96.79;97448.03;5202227;28;20209;-89
2022/12/29 07:02:18;;;;;;;4.22;3.85;;;6.60;99.90;;;7.27;97.23;97440.59;5198400;28;20601;-89
2022/12/29 07:04:51;;;;;;;3.95;3.65;;;6.50;99.90;;;7.37;96.95;97438.75;5199848;28;20787;-87
2022/12/29 07:07:25;;;;;;;4.45;4.05;;;6.60;99.90;;;7.52;94.47;97443.03;5198059;28;20296;-87
2022/12/29 07:09:58;;;;;;;8.70;6.78;;;7.10;99.90;;;7.44;95.78;97440.03;5202190;28;20206;-88
2022/12/29 07:12:31;;;;;;;5.80;5.20;;;6.90;99.90;;;7.35;96.82;97447.06;5198998;28;20776;-92
2022/12/29 07:15:08;;;;;;;6.60;6.10;;;6.80;99.90;;;7.17;97.53;97439.16;5201873;28;20201;-88
2022/12/29 07:17:41;;;;;;;5.78;5.38;;;6.60;99.90;;;7.15;97.84;97435.63;5199677;28;20275;-90
2022/12/29 07:20:15;;;;;;;6.93;5.30;;;6.50;99.90;;;6.99;97.98;97427.06;5193641;28;20207;-90
2022/12/29 07:22:55;;;;;;;5.38;4.88;;;6.30;99.90;;;6.86;99.60;97426.16;5192803;28;21171;-89
2022/12/29 07:25:29;;;;;;;4.70;4.35;;;6.20;99.90;;;6.80;100.00;97425.78;5202211;28;20214;-90
2022/12/29 07:28:02;;;;;;;4.97;4.57;;;6.20;99.90;;;6.83;100.00;97423.44;5196883;28;20209;-90
2022/12/29 07:30:39;;;;;;;4.70;4.30;;;6.20;99.90;;;6.85;100.00;97432.03;5202652;28;20628;-89
2022/12/29 07:33:14;;;;;;;5.28;4.82;;;6.30;99.90;;;7.00;99.57;97415.22;5202321;28;20248;-90
2022/12/29 07:35:48;;;;;;;6.68;6.00;;;6.40;99.90;;;6.99;99.38;97421.97;5199633;28;20202;-89
2022/12/29 07:38:21;;;;;;;5.50;4.70;;;6.30;99.90;;;6.97;99.89;97426.06;5199597;28;20623;-89
2022/12/29 07:40:59;;;;;;;5.03;4.53;;;6.30;99.90;;;6.94;99.92;97425.00;5199101;28;20369;-89
2022/12/29 07:43:32;;;;;;;7.38;6.88;;;6.30;99.90;;;7.02;99.69;97428.03;5196001;28;20661;-88
2022/12/29 07:46:08;;;;;;;9.52;8.63;;;6.30;99.90;;;6.96;100.00;97433.59;5199333;28;20193;-88
2022/12/29 07:49:02;;;;;;;7.95;7.15;;;6.20;99.90;;;6.84;100.00;97448.03;5199129;28;20194;-89
2022/12/29 07:51:35;;;;;;;8.32;7.07;;;6.10;99.90;;;6.80;100.00;97434.28;5202277;28;20229;-89
2022/12/29 07:54:09;;;;;;;8.10;6.95;;;6.00;99.90;;;6.71;100.00;97451.47;5201280;28;20205;-89
2022/12/29 07:56:43;;;;;;;8.20;7.40;;;5.90;99.90;;;6.60;100.00;97440.59;5199095;28;20278;-88
2022/12/29 07:59:16;;;;;;;9.07;8.18;;;5.80;99.90;;;6.42;100.00;97447.88;5196516;28;20230;-89
2022/12/29 08:01:51;;;;;;;8.02;7.32;;;5.80;99.90;;;6.51;100.00;97453.56;5203921;28;20218;-87
2022/12/29 08:04:24;;;;;;;7.20;6.60;;;5.80;99.90;;;6.60;100.00;97455.84;5203356;28;20210;-88
2022/12/29 08:06:57;;;;;;;7.05;6.45;;;5.90;99.90;;;6.65;100.00;97451.06;5200766;28;20655;-88
2022/12/29 08:09:31;;;;;;;7.80;7.00;;;5.90;99.90;;;6.65;100.00;97462.09;5204788;28;20259;-88
2022/12/29 08:12:04;;;;;;;7.50;6.80;;;5.90;99.90;;;6.61;100.00;97464.31;5209536;28;20257;-88
2022/12/29 08:14:38;;;;;;;6.55;5.95;;;6.00;99.90;;;6.64;100.00;97478.13;5202423;28;20193;-88
2022/12/29 08:17:12;;;;;;;10.45;9.55;;;6.00;99.90;;;6.79;100.00;97475.69;5205473;28;20193;-88
2022/12/29 08:19:46;;;;;;;9.23;8.43;;;6.10;99.90;;;6.89;100.00;97472.97;5205009;28;20681;-88
2022/12/29 08:22:19;;;;;;;8.75;7.95;;;6.20;99.90;;;7.10;100.00;97460.78;5201079;28;20209;-89
2022/12/29 08:24:52;;;;;;;8.50;7.80;;;6.30;99.90;;;7.16;100.00;97466.25;5201150;28;20244;-87
2022/12/29 08:27:27;;;;;;;8.32;7.63;;;6.40;99.90;;;7.17;100.00;97464.56;5200582;28;20214;-89
2022/12/29 08:30:00;;;;;;;8.05;7.25;;;6.50;99.90;;;7.25;100.00;97467.63;5193339;28;20728;-89
2022/12/29 08:32:35;;;;;;;6.80;6.20;;;6.70;99.90;;;7.46;100.00;97466.41;5203748;28;20271;-89
2022/12/29 08:35:09;;;;;;;7.68;6.10;;;6.90;99.90;;;7.71;100.00;97463.72;5217065;28;20938;-89
2022/12/29 08:37:42;;;;;;;6.60;6.00;;;7.20;99.90;;;7.96;100.00;97458.47;5208738;28;20202;-88
2022/12/29 08:40:16;;;;;;;6.63;5.90;;;7.40;99.90;;;8.18;100.00;97455.53;5207601;28;20259;-88
2022/12/29 08:42:49;;;;;;;7.95;6.68;;;7.60;99.90;;;8.35;100.00;97459.06;5214097;28;20247;-88
2022/12/29 08:45:22;;;;;;;6.20;5.70;;;7.80;99.90;;;8.46;100.00;97467.38;5210742;28;20563;-89
2022/12/29 08:47:57;;;;;;;6.32;5.72;;;7.90;99.90;;;8.52;100.00;97468.63;5198341;28;20256;-89
2022/12/29 08:50:30;;;;;;;5.90;5.50;;;7.90;99.90;;;8.57;100.00;97468.91;5201341;28;20221;-89
2022/12/29 08:53:04;;;;;;;7.15;6.55;;;8.00;99.90;;;8.69;100.00;97461.09;5204259;28;20225;-89
2022/12/29 08:55:37;;;;;;;8.85;8.00;;;8.00;99.90;;;8.72;100.00;97461.25;5202910;28;20206;-89
2022/12/29 08:58:14;;;;;;;6.78;6.15;;;8.00;99.90;;;8.76;100.00;97463.22;5197965;28;20261;-88
2022/12/29 09:00:47;;;;;;;6.80;6.10;;;8.10;99.90;;;8.78;99.23;97465.06;5202792;28;20273;-89
2022/12/29 09:03:22;;;;;;;5.60;5.10;;;8.10;99.90;;;9.02;95.70;97462.13;5200822;28;20638;-88
2022/12/29 09:06:17;;;;;;;4.68;4.28;;;8.30;99.90;;;9.05;94.52;97456.34;5206009;28;22022;-88
2022/12/29 09:08:51;;;;;;;4.22;3.92;;;8.40;99.90;;;9.15;93.55;97463.69;5201079;28;20189;-88
2022/12/29 09:11:26;;;;;;;4.30;4.00;;;8.50;99.90;;;9.25;92.22;97468.53;5202225;28;20291;-87
2022/12/29 09:13:59;;;;;;;4.70;4.38;;;8.70;99.90;;;9.46;91.32;97459.50;5201947;28;20637;-88
2022/12/29 09:16:33;;;;;;;4.85;4.45;;;8.90;99.90;;;9.72;88.72;97448.94;5205083;28;20302;-88
2022/12/29 09:19:08;;;;;;;4.30;4.00;;;9.10;99.90;;;9.85;88.68;97456.47;5201017;28;20222;-88
2022/12/29 09:21:41;;;;;;;5.00;4.60;;;9.30;99.90;;;9.92;87.43;97469.63;5198231;28;20271;-87
2022/12/29 09:24:14;;;;;;;4.72;3.90;;;9.30;99.90;;;9.99;86.84;97469.97;5192402;28;20245;-91
2022/12/29 09:26:47;;;;;;;3.58;3.28;;;9.40;99.90;;;10.03;87.52;97474.44;5199978;28;20292;-88
2022/12/29 09:29:21;;;;;;;3.58;3.25;;;9.50;99.90;;;10.14;86.62;97478.44;5205039;28;20222;-88
2022/12/29 09:31:54;;;;;;;3.97;3.60;;;9.50;99.90;;;10.27;84.86;97475.75;5200298;28;20272;-87
2022/12/29 09:34:28;;;;;;;3.80;3.50;;;9.60;99.90;;;10.32;84.89;97492.16;5203369;28;20313;-88
2022/12/29 09:37:01;;;;;;;3.90;3.55;;;9.70;99.90;;;10.32;84.97;97481.09;5196457;28;20194;-88
2022/12/29 09:39:34;;;;;;;3.65;3.35;;;9.70;99.90;;;10.36;85.22;97481.34;5197171;28;20193;-89
2022/12/29 09:42:14;;;;;;;3.30;3.10;;;9.80;99.90;;;10.44;84.45;97488.50;5198618;28;20927;-89
2022/12/29 09:45:06;;;;;;;3.38;3.08;;;9.80;99.90;;;10.43;84.67;97479.97;5207897;28;20627;-89
2022/12/29 09:47:39;;;;;;;3.45;3.15;;;9.80;99.90;;;10.59;82.29;97481.63;5206649;28;20204;-88
2022/12/29 09:50:23;;;;;;;3.97;3.58;;;9.90;99.90;;;10.55;83.61;97482.25;5201864;28;20730;-89
2022/12/29 09:53:01;;;;;;;3.38;3.17;;;9.90;99.90;;;10.54;83.40;97483.06;5197223;28;20305;-90
2022/12/29 09:55:39;;;;;;;3.83;3.53;;;9.90;99.90;;;10.68;83.47;97487.19;5204152;28;20198;-89
2022/12/29 09:58:21;;;;;;;3.95;3.25;;;10.00;99.90;;;10.63;82.93;97492.88;5200203;28;20194;-88
2022/12/29 10:01:02;;;;;;;3.50;3.30;;;10.00;99.90;;;10.59;83.96;97479.09;5192328;28;20252;-89
2022/12/29 10:03:47;;;;;;;3.55;3.28;;;9.90;99.90;;;10.56;83.06;97486.59;5194712;28;20213;-88
2022/12/29 10:06:27;;;;;;;3.05;2.75;;;10.00;99.90;;;10.62;83.11;97474.13;5210199;28;20607;-89
2022/12/29 10:09:11;;;;;;;3.45;3.10;;;10.00;99.90;;;10.73;82.78;97478.09;5199191;28;20688;-88
2022/12/29 10:12:01;;;;;;;3.20;3.00;;;10.00;99.90;;;10.86;79.49;97477.00;5202588;28;20267;-89
2022/12/29 10:14:53;;;;;;;3.58;3.28;;;10.10;99.90;;;11.01;79.00;97472.63;5200766;28;20651;-89
2022/12/29 10:17:37;;;;;;;3.38;3.10;;;10.30;99.90;;;11.08;78.03;97471.28;5201713;28;20202;-89
2022/12/29 10:20:28;;;;;;;3.28;3.08;;;10.40;99.90;;;11.24;78.50;97471.19;5198773;28;20197;-88
2022/12/29 10:23:22;;;;;;;3.40;3.10;;;10.60;99.90;;;11.45;76.76;97475.59;5202955;28;20283;-87
2022/12/29 10:25:58;;;;;;;4.75;3.45;;;10.80;99.90;;;11.43;77.28;97478.06;5204753;28;20248;-87
2022/12/29 10:28:39;;;;;;;3.92;2.80;;;10.80;99.90;;;11.51;76.77;97465.66;5204550;28;20816;-90
2022/12/29 10:31:19;;;;;;;3.33;3.05;;;10.90;99.90;;;11.57;76.70;97473.63;5207135;28;20233;-89
2022/12/29 10:33:59;;;;;;;3.30;3.10;;;10.90;99.90;;;11.52;77.13;97472.50;5204680;28;20769;-87
2022/12/29 10:36:40;;;;;;;3.00;2.80;;;10.90;99.90;;;11.72;75.23;97460.66;5203703;28;20194;-86
2022/12/29 10:39:22;;;;;;;3.33;2.90;;;11.10;99.90;;;11.62;76.66;97469.59;5203477;28;20205;-86
2022/12/29 10:42:05;;;;;;;2.95;2.75;;;11.00;99.90;;;11.68;75.58;97472.44;5197665;28;20254;-87
2022/12/29 10:44:39;;;;;;;3.17;2.88;;;11.10;99.90;;;11.55;76.65;97474.34;5209059;28;20198;-87
2022/12/29 10:47:18;;;;;;;3.30;2.83;;;10.90;99.90;;;11.65;75.95;97462.06;5195710;28;20261;-86
2022/12/29 10:49:51;;;;;;;3.55;2.60;;;11.00;99.90;;;11.65;76.04;97464.63;5198902;28;20206;-87
2022/12/29 10:52:27;;;;;;;3.33;2.53;;;11.10;99.90;;;11.72;76.32;97463.19;5206035;28;20242;-88
2022/12/29 10:55:06;;;;;;;3.22;3.03;;;11.10;99.90;;;11.85;75.33;97455.31;5203830;28;20240;-84
2022/12/29 10:57:43;;;;;;;3.33;3.03;;;11.20;99.90;;;11.95;75.54;97460.03;5208428;28;20263;-84
2022/12/29 11:00:20;;;;;;;3.50;3.08;;;11.30;99.90;;;11.91;76.30;97454.72;5204677;28;20205;-84
2022/12/29 11:03:35;;;;;;;3.25;2.72;;;11.30;99.90;;;12.22;73.17;97440.69;5210087;28;20225;-86
2022/12/29 11:06:13;;;;;;;3.30;3.00;;;11.50;99.90;;;12.15;73.74;97449.81;5205009;28;20201;-86
2022/12/29 11:08:55;;;;;;;3.60;3.10;;;11.60;99.90;;;12.18;74.14;97452.50;5194536;28;20194;-85
2022/12/29 11:11:36;;;;;;;2.92;2.80;;;11.50;99.90;;;12.27;74.39;97454.59;5197501;28;20727;-87
2022/12/29 11:14:14;;;;;;;2.63;2.42;;;11.60;99.90;;;12.29;73.60;97460.66;5201392;28;20259;-87
2022/12/29 11:16:59;;;;;;;3.85;2.63;;;11.70;99.90;;;12.36;72.93;97452.41;5205120;28;20297;-87
2022/12/29 11:19:34;;;;;;;2.97;2.70;;;11.80;99.90;;;12.54;71.09;97455.78;5203249;28;20622;-84
2022/12/29 11:22:22;;;;;;;2.95;2.63;;;11.90;99.90;;;12.50;71.99;97460.72;5205680;28;20218;-87
2022/12/29 11:25:13;;;;;;;3.22;2.72;;;11.90;99.90;;;12.59;71.06;97458.53;5201726;28;20253;-85
2022/12/29 11:27:57;;;;;;;2.80;2.60;;;11.90;99.90;;;12.68;70.25;97463.19;5205804;28;20209;-87
2022/12/29 11:30:33;;;;;;;2.70;2.50;;;12.20;99.90;;;12.69;70.03;97452.13;5200281;28;20240;-87
2022/12/29 11:33:06;;;;;;;2.28;2.17;;;12.30;99.90;;;12.76;70.30;97465.28;5199522;28;20210;-85
2022/12/29 11:35:42;;;;;;;2.92;2.72;;;12.40;99.90;;;12.76;71.12;97448.97;5204955;28;20675;-85
2022/12/29 11:38:22;;;;;;;2.70;2.50;;;12.30;99.90;;;12.89;70.66;97456.38;5205092;28;20217;-86
2022/12/29 11:40:56;;;;;;;2.88;2.65;;;12.50;99.90;;;12.95;70.08;97451.50;5199828;28;20222;-88
2022/12/29 11:43:34;;;;;;;2.85;2.65;;;12.60;99.90;;;12.95;70.85;97454.06;5201546;28;20214;-86
2022/12/29 11:46:18;;;;;;;3.03;2.72;;;12.60;99.90;;;13.01;70.00;97451.75;5202857;28;20225;-88
2022/12/29 11:48:58;;;;;;;3.00;2.50;;;12.50;99.90;;;13.01;71.05;97454.31;5197500;28;20240;-87
2022/12/29 11:51:40;;;;;;;3.40;3.03;;;12.50;99.90;;;13.08;69.78;97455.47;5199921;28;20233;-88
2022/12/29 11:54:20;;;;;;;2.63;2.42;;;12.60;99.90;;;13.19;69.88;97453.31;5197685;28;20249;-88